Latest Weather Observations for Taree Airport

IDN60801

Issued at 2:02 pm EST Monday 3 August 2015 (issued every 30 minutes, with the page automatically refreshed every 10 minutes)

About weather observations | Map of weather stations | Latest weather observations for NSW | Other Formats
Station Details ID: 060141 Name: TAREE AIRPORT AWS Lat: -31.89 Lon: 152.51 Height: 8.0 m
Data from the previous 72 hours. | See also: Recent months at Taree Airport
Date/Time
EST
Temp
°C
App
Temp
°C
Dew
Point
Rel
Hum
%
Delta-T
°C
Wind Press
QNH
hPa
Press
MSL
hPa
Rain
since 9 am
mm
Dir
 
Spd
km/h
Gust
km/h
Spd
kts
Gust
kts
03/02:00pm 20.9 19.0 10.4 51 5.7 SE 11 19 6 10 1012.8 1012.8 0.0
03/01:30pm 20.5 17.0 10.3 52 5.5 SE 19 26 10 14 1012.7 1012.7 0.0
03/01:00pm 20.0 16.4 10.4 54 5.2 SE 20 28 11 15 1012.9 1012.9 0.0
03/12:30pm 21.6 18.8 11.3 52 5.7 SE 17 22 9 12 1013.0 1013.0 0.0
03/12:00pm 22.0 19.6 10.2 47 6.4 SSE 13 19 7 10 1013.3 1013.3 0.0
03/11:30am 22.4 20.3 9.9 45 6.8 WNW 11 22 6 12 1013.8 1013.8 0.0
03/11:00am 22.0 20.2 9.5 45 6.7 WNW 9 17 5 9 1014.2 1014.2 0.0
03/10:30am 21.5 20.4 10.6 50 6.0 NW 7 13 4 7 1014.6 1014.6 0.0
03/10:00am 20.8 20.7 10.9 53 5.4 WNW 2 7 1 4 1014.9 1014.9 0.0
03/09:30am 19.3 19.1 10.3 56 4.8 WNW 2 7 1 4 1014.8 1014.8 0.0
03/09:00am 17.6 17.5 10.7 64 3.7 SSW 2 9 1 5 1014.7 1014.7 0.0
03/08:30am 17.2 17.7 11.5 69 3.1 CALM 0 0 0 0 1014.5 1014.5 0.0
03/08:00am 14.0 14.3 11.0 82 1.6 CALM 0 0 0 0 1014.1 1014.1 0.0
03/07:30am 10.2 9.1 8.5 89 0.8 N 4 9 2 5 1013.8 1013.8 0.0
03/07:00am 8.9 7.9 7.4 90 0.7 NNE 2 9 1 5 1013.5 1013.5 0.0
03/06:30am 10.2 9.1 8.6 90 0.8 WNW 4 9 2 5 1013.2 1013.2 0.0
03/06:00am 9.7 9.3 8.1 90 0.8 CALM 0 0 0 0 1012.9 1012.9 0.0
03/05:30am 11.1 10.9 9.0 87 1.0 CALM 0 7 0 4 1012.6 1012.6 0.0
03/05:00am 11.0 10.6 8.4 84 1.3 CALM 0 0 0 0 1012.4 1012.4 0.0
03/04:30am 11.0 10.6 8.2 83 1.4 CALM 0 0 0 0 1012.1 1012.1 0.0
03/04:00am 10.2 9.4 6.5 78 1.7 CALM 0 0 0 0 1012.0 1012.0 0.0
03/03:30am 11.4 11.0 8.1 80 1.6 CALM 0 0 0 0 1011.8 1011.8 0.0
03/03:00am 12.6 12.1 7.9 73 2.3 CALM 0 4 0 2 1011.8 1011.8 0.0
03/02:30am 10.8 10.2 7.3 79 1.7 CALM 0 0 0 0 1011.9 1011.9 0.0
03/02:00am 11.8 11.2 7.5 75 2.1 CALM 0 7 0 4 1012.0 1012.0 0.0
03/01:30am 13.2 11.4 8.1 71 2.5 N 7 11 4 6 1012.2 1012.2 0.0
03/01:00am 13.2 11.9 7.6 69 2.7 NNW 4 9 2 5 1012.6 1012.6 0.0
03/12:30am 13.2 12.6 7.2 67 2.9 CALM 0 0 0 0 1012.8 1012.8 0.0
03/12:00am 16.7 14.9 7.1 53 4.8 N 6 9 3 5 1013.0 1013.0 0.0
 
Date/Time
EST
Temp
°C
App
Temp
°C
Dew
Point
Rel
Hum
%
Delta-T
°C
Wind Press
QNH
hPa
Press
MSL
hPa
Rain
since 9 am
mm
Dir
 
Spd
km/h
Gust
km/h
Spd
kts
Gust
kts
02/11:30pm 17.6 15.2 6.8 49 5.4 NNW 9 15 5 8 1013.4 1013.4 0.0
02/11:00pm 18.4 15.6 6.9 47 5.8 NNW 11 19 6 10 1013.6 1013.6 0.0
02/10:30pm 20.1 16.3 7.5 44 6.5 NNW 17 22 9 12 1013.8 1013.8 0.0
02/10:00pm 16.6 13.7 6.7 52 4.9 NNW 11 17 6 9 1013.8 1013.8 0.0
02/09:51pm 15.8 13.0 6.8 55 4.4 NNW 11 15 6 8 1013.8 1013.8 0.0
02/09:30pm 21.2 19.5 7.4 41 7.1 NNW 6 13 3 7 1013.9 1013.9 0.0
02/09:00pm 19.0 18.3 6.8 45 6.1 CALM 0 0 0 0 1013.8 1013.8 0.0
02/08:30pm 16.6 14.1 6.7 52 4.9 N 9 11 5 6 1013.7 1013.7 0.0
02/08:00pm 19.7 18.0 5.7 40 6.9 NNW 4 9 2 5 1013.8 1013.8 0.0
02/07:30pm 19.6 17.4 6.0 41 6.7 NNW 7 11 4 6 1013.6 1013.6 0.0
02/07:00pm 19.3 16.8 6.4 43 6.4 N 9 15 5 8 1013.4 1013.4 0.0
02/06:30pm 21.7 19.5 5.2 34 8.2 NNW 6 11 3 6 1013.3 1013.3 0.0
02/06:00pm 23.7 21.4 5.6 31 9.2 NW 7 11 4 6 1013.1 1013.1 0.0
02/05:30pm 23.9 22.9 5.8 31 9.2 CALM 0 7 0 4 1012.5 1012.5 0.0
02/05:00pm 25.5 23.5 6.2 29 10.0 NNW 6 24 3 13 1012.3 1012.3 0.0
02/04:30pm 24.0 23.4 12.3 48 6.7 ESE 7 13 4 7 1012.1 1012.1 0.0
02/04:00pm 25.1 24.6 12.0 44 7.5 ESE 6 13 3 7 1011.9 1011.9 0.0
02/03:30pm 25.6 24.3 12.4 43 7.6 SE 11 15 6 8 1012.0 1012.0 0.0
02/03:00pm 27.7 26.7 7.5 28 10.8 NW 2 7 1 4 1012.1 1012.1 0.0
02/02:30pm 27.9 26.2 7.7 28 10.9 NW 6 15 3 8 1012.1 1012.1 0.0
02/02:00pm 27.2 25.6 8.1 30 10.3 NE 6 13 3 7 1012.3 1012.3 0.0
02/01:30pm 25.2 23.9 9.9 38 8.4 ESE 7 11 4 6 1012.6 1012.6 0.0
02/01:00pm 25.2 23.7 9.1 36 8.7 ESE 7 11 4 6 1013.0 1013.0 0.0
02/12:30pm 24.1 24.1 11.1 44 7.3 ESE 2 9 1 5 1013.8 1013.8 0.0
02/12:00pm 22.1 21.0 10.6 48 6.3 S 7 11 4 6 1014.7 1014.7 0.0
02/11:30am 21.2 20.7 9.4 47 6.3 ESE 2 6 1 3 1015.3 1015.3 0.0
02/11:00am 20.0 19.7 8.7 48 5.9 CALM 0 0 0 0 1015.9 1015.9 0.0
02/10:30am 20.0 19.1 7.7 45 6.3 SSW 2 7 1 4 1016.3 1016.3 0.0
02/10:00am 17.2 16.8 9.9 62 3.8 NW 2 7 1 4 1016.8 1016.8 0.0
02/09:30am 14.9 13.4 9.3 69 2.9 W 7 9 4 5 1017.0 1017.0 0.0
02/09:00am 14.9 14.4 9.3 69 2.9 NW 2 7 1 4 1016.9 1016.9 0.2
02/08:30am 13.4 13.0 9.8 79 1.8 SW 2 7 1 4 1017.0 1017.0 0.2
02/08:00am 11.6 11.6 9.7 88 1.0 CALM 0 0 0 0 1017.1 1017.1 0.2
02/07:30am 10.9 10.8 9.5 91 0.7 CALM 0 0 0 0 1017.1 1017.1 0.2
02/07:00am 9.9 9.5 8.3 90 0.8 CALM 0 0 0 0 1016.9 1016.9 0.2
02/06:30am 10.5 8.9 8.9 90 0.8 WSW 7 15 4 8 1016.8 1016.8 0.2
02/06:00am 11.1 9.6 8.5 84 1.3 NNW 6 7 3 4 1016.7 1016.7 0.2
02/05:30am 9.7 8.1 8.6 93 0.5 NNE 7 9 4 5 1016.9 1016.9 0.2
02/05:00am 10.8 10.0 8.0 83 1.4 N 2 9 1 5 1016.7 1016.7 0.2
02/04:30am 10.6 10.3 8.7 88 0.9 CALM 0 0 0 0 1016.8 1016.8 0.2
02/04:00am 9.9 8.2 7.5 85 1.1 NNW 6 9 3 5 1017.0 1017.0 0.2
02/03:30am 11.1 9.7 8.7 85 1.2 WSW 6 9 3 5 1017.0 1017.0 0.2
02/03:00am 12.5 10.9 8.0 74 2.2 WNW 6 7 3 4 1017.2 1017.2 0.2
02/02:30am 11.6 9.8 7.9 78 1.8 NW 7 9 4 5 1017.5 1017.5 0.2
02/02:00am 11.8 9.0 8.5 80 1.6 WSW 13 19 7 10 1017.6 1017.6 0.2
02/01:30am 11.1 10.9 9.0 87 1.0 CALM 0 0 0 0 1017.8 1017.8 0.2
02/01:00am 11.2 10.1 8.4 83 1.4 WNW 4 7 2 4 1018.1 1018.1 0.2
02/12:30am 11.5 10.0 9.1 85 1.2 W 7 11 4 6 1018.6 1018.6 0.2
02/12:00am 10.0 9.5 9.2 95 0.4 SSW 2 9 1 5 1018.7 1018.7 0.2
 
Date/Time
EST
Temp
°C
App
Temp
°C
Dew
Point
Rel
Hum
%
Delta-T
°C
Wind Press
QNH
hPa
Press
MSL
hPa
Rain
since 9 am
mm
Dir
 
Spd
km/h
Gust
km/h
Spd
kts
Gust
kts
01/11:30pm 9.7 8.9 8.1 90 0.8 NW 2 7 1 4 1018.7 1018.7 0.2
01/11:00pm 10.8 9.4 9.6 92 0.6 WSW 7 13 4 7 1019.0 1019.0 0.2
01/10:30pm 10.8 10.8 9.7 93 0.6 CALM 0 0 0 0 1019.2 1019.2 0.2
01/10:00pm 11.2 11.1 9.5 89 0.9 CALM 0 0 0 0 1019.1 1019.1 0.2
01/09:30pm 12.1 12.2 10.3 89 0.9 CALM 0 0 0 0 1019.2 1019.2 0.2
01/09:00pm 12.6 11.5 10.8 89 0.9 WSW 7 9 4 5 1019.3 1019.3 0.2
01/08:30pm 13.0 12.0 10.9 87 1.1 SW 7 11 4 6 1018.8 1018.8 0.2
01/08:00pm 14.1 14.2 10.3 78 2.0 CALM 0 0 0 0 1018.6 1018.6 0.2
01/07:30pm 14.0 14.2 10.6 80 1.8 CALM 0 0 0 0 1018.7 1018.7 0.2
01/07:00pm 16.1 16.3 10.4 69 3.0 CALM 0 0 0 0 1018.4 1018.4 0.2
01/06:30pm 15.5 15.6 10.1 70 2.8 CALM 0 0 0 0 1018.1 1018.1 0.2
01/06:00pm 15.8 15.8 9.9 68 3.1 CALM 0 0 0 0 1017.9 1017.9 0.2
01/05:30pm 17.8 17.8 9.9 60 4.2 CALM 0 0 0 0 1017.4 1017.4 0.2
01/05:00pm 19.4 19.4 9.9 54 5.1 CALM 0 4 0 2 1017.2 1017.2 0.2
01/04:30pm 20.9 19.0 9.2 47 6.2 NE 9 15 5 8 1017.2 1017.2 0.2
01/04:00pm 21.6 18.8 8.5 43 6.9 NE 13 17 7 9 1017.1 1017.1 0.2
01/03:30pm 23.1 21.2 7.6 37 8.1 NNE 7 13 4 7 1017.1 1017.1 0.2
01/03:00pm 23.2 20.8 6.9 35 8.4 NE 9 15 5 8 1017.1 1017.1 0.2
01/02:30pm 23.2 20.5 7.3 36 8.3 N 11 19 6 10 1016.8 1016.8 0.2
01/02:00pm 23.2 20.8 6.9 35 8.4 N 9 17 5 9 1017.1 1017.1 0.2
01/01:30pm 23.3 21.0 7.4 36 8.3 NNW 9 11 5 6 1017.5 1017.5 0.2
01/01:00pm 22.6 19.8 6.8 36 8.1 NNW 11 15 6 8 1017.7 1017.7 0.2
01/12:30pm 21.8 18.1 6.1 36 7.9 WNW 15 24 8 13 1018.4 1018.4 0.2
01/12:00pm 20.7 18.9 8.0 44 6.6 WNW 7 13 4 7 1019.0 1019.0 0.2
01/11:30am 18.6 17.0 8.8 53 5.1 SSW 7 11 4 6 1019.7 1019.7 0.2
01/11:00am 17.9 17.2 8.7 55 4.7 W 2 7 1 4 1020.1 1020.1 0.0
01/10:30am 16.0 14.3 7.7 58 4.2 N 6 9 3 5 1020.4 1020.4 0.0
01/10:00am 15.2 14.7 8.0 62 3.6 CALM 0 2 0 1 1020.7 1020.7 0.0
01/09:30am 13.7 12.0 7.5 66 3.0 W 6 9 3 5 1021.0 1021.0 0.0
01/09:00am 11.7 10.1 8.6 81 1.5 W 7 11 4 6 1020.9 1020.9 0.0
01/08:30am 9.6 7.8 7.0 84 1.2 WSW 6 11 3 6 1020.8 1020.8 0.0
01/08:00am 7.9 5.9 6.2 89 0.8 WNW 6 7 3 4 1020.6 1020.6 0.0
01/07:33am 7.1 6.3 6.4 95 0.3 CALM 0 6 0 3 1020.5 1020.5 0.0
01/07:30am 7.1 5.9 6.4 95 0.3 WNW 2 6 1 3 1020.5 1020.5 0.0
01/07:14am 6.4 5.1 6.1 98 0.1 WNW 2 6 1 3 1020.5 1020.5 0.0
01/07:01am 4.9 2.9 4.3 96 0.3 WNW 4 7 2 4 1020.7 1020.7 0.0
01/07:00am 4.8 2.8 4.2 96 0.3 WNW 4 7 2 4 1020.7 1020.7 0.0
01/06:48am 4.2 2.0 3.2 93 0.4 NW 4 7 2 4 1020.6 1020.6 0.0
01/06:30am 5.4 3.6 5.3 99 0.0 W 4 9 2 5 1020.6 1020.6 0.0
01/06:25am 5.1 4.0 5.0 99 0.0 CALM 0 0 0 0 1020.6 1020.6 0.0
01/06:00am 4.6 3.4 4.5 99 0.0 CALM 0 0 0 0 1020.4 1020.4 0.0
01/05:30am 4.4 3.1 4.3 99 0.0 CALM 0 0 0 0 1020.4 1020.4 0.0
01/05:00am 4.6 3.3 4.2 97 0.2 CALM 0 0 0 0 1020.3 1020.3 0.0
01/04:46am 5.3 4.2 5.0 98 0.1 CALM 0 0 0 0 1020.3 1020.3 0.0
01/04:30am 5.9 4.9 5.6 98 0.1 CALM 0 0 0 0 1020.2 1020.2 0.0
01/04:09am 6.1 5.2 6.0 99 0.0 CALM 0 0 0 0 1020.2 1020.2 0.0
01/04:00am 5.8 4.8 5.7 99 0.0 CALM 0 0 0 0 1020.2 1020.2 0.0
01/03:51am 5.7 4.7 5.4 98 0.1 CALM 0 0 0 0 1020.3 1020.3 0.0
01/03:30am 6.0 5.1 5.9 99 0.0 CALM 0 0 0 0 1020.4 1020.4 0.0
01/03:24am 6.3 5.4 6.2 99 0.0 CALM 0 0 0 0 1020.3 1020.3 0.0
01/03:00am 6.0 5.1 5.9 99 0.0 CALM 0 0 0 0 1020.7 1020.7 0.0
01/02:30am 5.8 4.8 5.5 98 0.1 CALM 0 0 0 0 1021.0 1021.0 0.0
01/02:00am 5.8 4.7 5.2 96 0.3 CALM 0 0 0 0 1021.4 1021.4 0.0
01/01:30am 6.7 5.9 6.4 98 0.1 CALM 0 0 0 0 1021.9 1021.9 0.0
01/01:11am 6.1 5.1 5.4 95 0.3 CALM 0 0 0 0 1022.0 1022.0 0.0
01/01:00am 6.8 5.9 6.1 95 0.3 CALM 0 0 0 0 1022.2 1022.2 0.0
01/12:55am 6.6 5.6 5.7 94 0.4 CALM 0 0 0 0 1022.2 1022.2 0.0
01/12:34am 7.8 7.2 7.4 97 0.2 CALM 0 0 0 0 1022.2 1022.2 0.0
01/12:30am 7.9 7.3 7.5 97 0.2 CALM 0 0 0 0 1022.1 1022.1 0.0
01/12:00am 8.0 7.4 7.4 96 0.3 CALM 0 0 0 0 1022.3 1022.3 0.0
 
Date/Time
EST
Temp
°C
App
Temp
°C
Dew
Point
Rel
Hum
%
Delta-T
°C
Wind Press
QNH
hPa
Press
MSL
hPa
Rain
since 9 am
mm
Dir
 
Spd
km/h
Gust
km/h
Spd
kts
Gust
kts
31/11:33pm 8.2 6.5 7.6 96 0.3 W 6 9 3 5 1022.5 1022.5 0.0
31/11:30pm 8.1 6.1 7.3 95 0.4 W 7 9 4 5 1022.5 1022.5 0.0
31/11:12pm 8.4 7.8 7.6 95 0.4 CALM 0 0 0 0 1022.6 1022.6 0.0
31/11:00pm 8.7 8.3 8.1 96 0.3 CALM 0 0 0 0 1022.5 1022.5 0.0
31/10:39pm 8.3 7.3 7.2 93 0.5 W 2 6 1 3 1022.5 1022.5 0.0
31/10:30pm 8.7 7.1 7.8 94 0.4 W 6 9 3 5 1022.5 1022.5 0.0
31/10:15pm 9.0 8.6 8.2 95 0.4 CALM 0 0 0 0 1022.6 1022.6 0.0
31/10:00pm 9.1 8.6 8.0 93 0.5 CALM 0 0 0 0 1022.5 1022.5 0.0
31/09:30pm 9.4 8.9 8.0 91 0.7 CALM 0 0 0 0 1022.7 1022.7 0.0
31/09:29pm 9.5 9.1 8.1 91 0.7 CALM 0 0 0 0 1022.6 1022.6 0.0
31/09:10pm 9.5 9.0 7.9 90 0.8 CALM 0 0 0 0 1022.7 1022.7 0.0
31/09:00pm 10.0 9.6 8.4 90 0.8 CALM 0 6 0 3 1022.5 1022.5 0.0
31/08:38pm 10.9 9.4 9.0 88 0.9 NW 7 9 4 5 1022.3 1022.3 0.0
31/08:30pm 11.0 9.5 9.1 88 0.9 W 7 7 4 4 1022.4 1022.4 0.0
31/08:25pm 10.8 9.2 8.9 88 0.9 WSW 7 7 4 4 1022.3 1022.3 0.0
31/08:20pm 10.5 9.0 8.4 87 1.0 W 6 7 3 4 1022.3 1022.3 0.0
31/08:15pm 10.6 9.9 8.4 86 1.1 W 2 7 1 4 1022.4 1022.4 0.0
31/08:00pm 11.7 9.8 8.9 83 1.4 W 9 9 5 5 1022.2 1022.2 0.0
31/07:30pm 11.2 9.9 9.1 87 1.0 SW 6 9 3 5 1022.2 1022.2 0.0
31/07:00pm 11.7 11.3 8.2 79 1.7 CALM 0 6 0 3 1021.7 1021.7 0.0
31/06:30pm 12.5 10.8 8.4 76 2.0 N 7 7 4 4 1021.5 1021.5 0.0
31/06:00pm 13.4 11.8 8.7 73 2.3 NNE 7 9 4 5 1021.1 1021.1 0.0
31/05:30pm 14.1 12.7 8.7 70 2.7 NNE 6 7 3 4 1020.7 1020.7 0.0
31/05:00pm 15.9 14.3 8.6 62 3.7 NE 7 9 4 5 1020.3 1020.3 0.0
31/04:30pm 17.5 15.6 8.9 57 4.5 E 9 11 5 6 1019.9 1019.9 0.0
31/04:00pm 18.0 15.3 8.8 55 4.8 ESE 13 19 7 10 1019.8 1019.8 0.0
31/03:30pm 18.0 14.1 8.6 54 4.9 SE 19 26 10 14 1019.7 1019.7 0.0
31/03:00pm 18.6 14.7 8.6 52 5.2 SE 19 28 10 15 1019.7 1019.7 0.0
31/02:30pm 19.1 15.0 7.8 48 5.8 SE 19 26 10 14 1019.6 1019.6 0.0

Other Formats:

Comma delimited format used in spreadsheet applications
http://www.bom.gov.au/fwo/IDN60801/IDN60801.95784.axf

JavaScript Object Notation format (JSON) in row-major order
http://www.bom.gov.au/fwo/IDN60801/IDN60801.95784.json